createdAt,value
2018-11-02T00:00:18.220Z,6.20
2018-11-02T00:01:18.320Z,5.50
2018-11-02T00:02:18.091Z,6.40
2018-11-02T00:03:18.107Z,5.30
2018-11-02T00:04:18.120Z,5.30
2018-11-02T00:05:18.183Z,5.60
2018-11-02T00:06:18.312Z,6.20
2018-11-02T00:07:18.182Z,5.70
2018-11-02T00:08:18.201Z,5.20
2018-11-02T00:09:18.216Z,6.40
2018-11-02T00:10:18.240Z,6.30
2018-11-02T00:11:18.354Z,6.00
2018-11-02T00:12:18.424Z,5.40
2018-11-02T00:13:18.320Z,7.10
2018-11-02T00:14:18.307Z,7.60
2018-11-02T00:15:18.327Z,7.40
2018-11-02T00:16:18.441Z,5.50
2018-11-02T00:17:18.363Z,5.20
2018-11-02T00:18:18.378Z,6.40
2018-11-02T00:19:18.404Z,4.60
2018-11-02T00:20:18.422Z,6.20
2018-11-02T00:21:18.701Z,6.20
2018-11-02T00:22:18.457Z,7.50
2018-11-02T00:23:18.479Z,6.80
2018-11-02T00:24:18.497Z,5.90
2018-11-02T00:25:18.521Z,5.80
2018-11-02T00:26:18.538Z,5.10
2018-11-02T00:27:18.646Z,6.30
2018-11-02T00:28:18.569Z,6.20
2018-11-02T00:29:18.599Z,6.40
2018-11-02T00:30:18.606Z,6.60
2018-11-02T00:31:18.627Z,4.70
2018-11-02T00:32:18.748Z,6.10
2018-11-02T00:33:18.689Z,4.80
2018-11-02T00:34:18.683Z,6.10
2018-11-02T00:35:18.710Z,5.70
2018-11-02T00:36:18.722Z,5.20
2018-11-02T00:37:18.893Z,7.00
2018-11-02T00:38:18.762Z,6.20
2018-11-02T00:39:18.780Z,6.80
2018-11-02T00:40:18.791Z,6.20
2018-11-02T00:41:18.814Z,6.50
2018-11-02T00:42:18.936Z,5.90
2018-11-02T00:43:18.857Z,6.70
2018-11-02T00:44:18.871Z,6.40
2018-11-02T00:45:18.944Z,6.10
2018-11-02T00:46:18.893Z,6.00
2018-11-02T00:47:19.040Z,5.30
2018-11-02T00:48:18.944Z,5.90
2018-11-02T00:49:18.965Z,6.10
2018-11-02T00:50:18.984Z,8.00
2018-11-02T00:51:19.405Z,6.90
2018-11-02T00:52:19.121Z,5.90
2018-11-02T00:53:19.027Z,5.60
2018-11-02T00:54:19.060Z,6.70
2018-11-02T00:55:19.072Z,6.80
2018-11-02T00:56:19.097Z,5.90
2018-11-02T00:57:19.212Z,6.40
2018-11-02T00:58:19.136Z,8.30
2018-11-02T00:59:19.156Z,8.10
2018-11-02T01:00:19.162Z,6.70
2018-11-02T01:01:19.187Z,6.70
2018-11-02T01:02:19.459Z,7.20
2018-11-02T01:03:19.220Z,7.00
2018-11-02T01:04:19.244Z,8.00
2018-11-02T01:05:19.262Z,6.40
2018-11-02T01:06:19.283Z,6.80
2018-11-02T01:07:19.393Z,8.30
2018-11-02T01:08:19.325Z,7.70
2018-11-02T01:09:19.339Z,6.40
2018-11-02T01:10:19.352Z,6.20
2018-11-02T01:11:19.360Z,7.40
2018-11-02T01:12:19.494Z,8.80
2018-11-02T01:13:19.413Z,6.90
2018-11-02T01:14:19.439Z,8.00
2018-11-02T01:15:19.446Z,7.50
2018-11-02T01:16:19.464Z,7.80
2018-11-02T01:17:19.586Z,6.20
2018-11-02T01:18:19.508Z,6.90
2018-11-02T01:19:19.521Z,7.00
2018-11-02T01:20:19.534Z,8.00
2018-11-02T01:21:19.562Z,7.20
2018-11-02T01:22:19.576Z,7.70
2018-11-02T01:23:19.693Z,8.10
2018-11-02T01:24:19.608Z,7.70
2018-11-02T01:25:19.639Z,8.00
2018-11-02T01:26:19.648Z,8.40
2018-11-02T01:27:19.666Z,8.40
2018-11-02T01:28:19.784Z,7.80
2018-11-02T01:29:19.709Z,8.70
2018-11-02T01:30:19.727Z,7.40
2018-11-02T01:31:19.743Z,7.40
2018-11-02T01:32:19.762Z,8.00
2018-11-02T01:33:19.884Z,7.90
2018-11-02T01:34:19.802Z,8.00
2018-11-02T01:35:19.838Z,7.70
2018-11-02T01:36:19.824Z,8.10
2018-11-02T01:37:19.850Z,7.70
2018-11-02T01:38:19.975Z,8.00
2018-11-02T01:39:19.895Z,7.90
2018-11-02T01:40:19.913Z,8.40
2018-11-02T01:41:19.934Z,7.40
2018-11-02T01:42:19.949Z,6.40
2018-11-02T01:43:20.064Z,8.00
2018-11-02T01:44:19.986Z,7.90
2018-11-02T01:45:19.993Z,7.30
2018-11-02T01:46:20.037Z,7.40
2018-11-02T01:47:20.039Z,7.80
2018-11-02T01:48:20.316Z,9.50
2018-11-02T01:49:20.077Z,7.30
2018-11-02T01:50:20.100Z,7.90
2018-11-02T01:51:20.114Z,7.40
2018-11-02T01:52:20.119Z,6.60
2018-11-02T01:53:20.270Z,8.60
2018-11-02T01:54:20.168Z,8.60
2018-11-02T01:55:20.183Z,6.60
2018-11-02T01:56:20.209Z,7.30
2018-11-02T01:57:20.228Z,9.20
2018-11-02T01:58:20.340Z,6.90
2018-11-02T01:59:20.265Z,9.70
2018-11-02T02:00:20.279Z,7.70
2018-11-02T02:01:20.299Z,9.10
2018-11-02T02:02:20.326Z,7.70
2018-11-02T02:03:20.437Z,7.70
2018-11-02T02:04:20.353Z,6.90
2018-11-02T02:05:20.371Z,7.20
2018-11-02T02:06:20.389Z,9.50
2018-11-02T02:07:20.410Z,7.20
2018-11-02T02:08:20.552Z,7.70
2018-11-02T02:09:20.526Z,7.80
2018-11-02T02:10:20.468Z,7.30
2018-11-02T02:11:20.496Z,7.50
2018-11-02T02:12:20.504Z,7.30
2018-11-02T02:13:20.739Z,7.20
2018-11-02T02:14:20.531Z,7.10
2018-11-02T02:15:20.540Z,8.40
2018-11-02T02:16:20.571Z,7.60
2018-11-02T02:17:20.597Z,7.90
2018-11-02T02:18:20.861Z,6.50
2018-11-02T02:19:20.625Z,8.30
2018-11-02T02:20:20.641Z,6.50
2018-11-02T02:21:20.668Z,6.60
2018-11-02T02:22:20.687Z,6.20
2018-11-02T02:23:20.801Z,7.90
2018-11-02T02:24:20.723Z,6.90
2018-11-02T02:25:20.736Z,7.10
2018-11-02T02:26:20.765Z,7.20
2018-11-02T02:27:20.779Z,7.00
2018-11-02T02:28:20.897Z,5.50
2018-11-02T02:29:20.797Z,7.30
2018-11-02T02:30:20.834Z,6.60
2018-11-02T02:31:20.857Z,6.20
2018-11-02T02:32:20.875Z,5.40
2018-11-02T02:33:20.991Z,6.50
2018-11-02T02:34:20.898Z,9.50
2018-11-02T02:35:20.921Z,5.50
2018-11-02T02:36:20.941Z,8.30
2018-11-02T02:37:20.961Z,7.30
2018-11-02T02:38:21.081Z,7.10
2018-11-02T02:39:20.995Z,6.50
2018-11-02T02:40:21.017Z,7.00
2018-11-02T02:41:21.027Z,7.30
2018-11-02T02:42:21.037Z,6.60
2018-11-02T02:43:21.182Z,5.50
2018-11-02T02:44:21.085Z,7.80
2018-11-02T02:45:21.112Z,7.30
2018-11-02T02:46:21.121Z,7.00
2018-11-02T02:47:21.147Z,6.80
2018-11-02T02:48:21.268Z,7.40
2018-11-02T02:49:21.182Z,5.60
2018-11-02T02:50:21.197Z,7.00
2018-11-02T02:51:21.220Z,6.10
2018-11-02T02:52:21.237Z,6.70
2018-11-02T02:53:21.352Z,7.00
2018-11-02T02:54:21.269Z,8.10
2018-11-02T02:55:21.288Z,5.90
2018-11-02T02:56:21.453Z,7.30
2018-11-02T02:57:21.326Z,6.90
2018-11-02T02:58:21.450Z,6.60
2018-11-02T02:59:21.362Z,5.60
2018-11-02T03:00:21.380Z,6.30
2018-11-02T03:01:21.406Z,7.20
2018-11-02T03:02:21.417Z,6.30
2018-11-02T03:03:21.541Z,6.30
2018-11-02T03:04:21.456Z,6.40
2018-11-02T03:05:21.479Z,6.20
2018-11-02T03:06:21.535Z,7.40
2018-11-02T03:07:21.507Z,6.70
2018-11-02T03:08:21.528Z,8.30
2018-11-02T03:09:21.642Z,6.10
2018-11-02T03:10:21.609Z,5.60
2018-11-02T03:11:21.582Z,6.70
2018-11-02T03:12:21.595Z,6.40
2018-11-02T03:13:21.626Z,5.10
2018-11-02T03:14:21.904Z,6.60
2018-11-02T03:15:21.655Z,7.90
2018-11-02T03:16:21.702Z,7.50
2018-11-02T03:17:21.692Z,8.20
2018-11-02T03:18:21.746Z,6.10
2018-11-02T03:19:21.836Z,6.50
2018-11-02T03:20:21.752Z,6.70
2018-11-02T03:21:21.762Z,5.90
2018-11-02T03:22:21.817Z,5.80
2018-11-02T03:23:21.800Z,6.00
2018-11-02T03:24:22.083Z,6.30
2018-11-02T03:25:21.840Z,6.50
2018-11-02T03:26:21.850Z,6.70
2018-11-02T03:27:21.858Z,5.80
2018-11-02T03:28:21.895Z,7.00
2018-11-02T03:29:22.164Z,5.40
2018-11-02T03:30:21.959Z,6.90
2018-11-02T03:31:21.946Z,5.60
2018-11-02T03:32:21.975Z,6.30
2018-11-02T03:33:21.987Z,7.90
2018-11-02T03:34:22.102Z,6.90
2018-11-02T03:35:22.019Z,6.00
2018-11-02T03:36:22.035Z,8.40
2018-11-02T03:37:22.053Z,6.30
2018-11-02T03:38:22.080Z,6.40
2018-11-02T03:39:22.192Z,5.30
2018-11-02T03:40:22.113Z,5.80
2018-11-02T03:41:22.124Z,5.50
2018-11-02T03:42:22.143Z,5.60
2018-11-02T03:43:22.166Z,6.40
2018-11-02T03:44:22.315Z,6.00
2018-11-02T03:45:22.200Z,5.00
2018-11-02T03:46:22.217Z,5.80
2018-11-02T03:47:22.235Z,4.60
2018-11-02T03:48:22.254Z,5.60
2018-11-02T03:49:22.371Z,5.60
2018-11-02T03:50:22.293Z,5.10
2018-11-02T03:51:22.306Z,5.40
2018-11-02T03:52:22.314Z,5.80
2018-11-02T03:53:22.380Z,6.00
2018-11-02T03:54:22.471Z,4.80
2018-11-02T03:55:22.389Z,6.00
2018-11-02T03:56:22.390Z,5.40
2018-11-02T03:57:22.417Z,6.80
2018-11-02T03:58:22.436Z,5.60
2018-11-02T03:59:22.560Z,5.40
2018-11-02T04:00:22.473Z,5.20
2018-11-02T04:01:22.491Z,6.70
2018-11-02T04:02:22.510Z,6.10
2018-11-02T04:03:22.527Z,5.30
2018-11-02T04:04:22.545Z,5.90
2018-11-02T04:05:22.667Z,6.00
2018-11-02T04:06:22.585Z,6.70
2018-11-02T04:07:22.598Z,5.50
2018-11-02T04:08:22.626Z,4.70
2018-11-02T04:09:22.652Z,7.00
2018-11-02T04:10:22.753Z,6.50
2018-11-02T04:11:22.671Z,6.00
2018-11-02T04:12:22.695Z,5.60
2018-11-02T04:13:22.726Z,5.80
2018-11-02T04:14:22.738Z,6.90
2018-11-02T04:15:22.845Z,5.20
2018-11-02T04:16:22.861Z,6.20
2018-11-02T04:17:22.777Z,5.50
2018-11-02T04:18:22.798Z,5.90
2018-11-02T04:19:22.811Z,5.10
2018-11-02T04:20:22.941Z,6.00
2018-11-02T04:21:22.857Z,6.30
2018-11-02T04:22:22.893Z,6.60
2018-11-02T04:23:22.889Z,5.20
2018-11-02T04:24:22.908Z,5.80
2018-11-02T04:25:23.171Z,6.60
2018-11-02T04:26:22.946Z,5.30
2018-11-02T04:27:22.962Z,5.20
2018-11-02T04:28:22.987Z,5.20
2018-11-02T04:29:23.005Z,5.90
2018-11-02T04:30:23.270Z,5.40
2018-11-02T04:31:23.036Z,5.40
2018-11-02T04:32:23.058Z,5.80
2018-11-02T04:33:23.072Z,7.10
2018-11-02T04:34:23.089Z,5.70
2018-11-02T04:35:23.208Z,4.60
2018-11-02T04:36:23.111Z,5.90
2018-11-02T04:37:23.139Z,5.90
2018-11-02T04:38:23.144Z,5.40
2018-11-02T04:39:23.181Z,5.80
2018-11-02T04:40:23.293Z,5.30
2018-11-02T04:41:23.217Z,5.40
2018-11-02T04:42:23.235Z,6.40
2018-11-02T04:43:23.253Z,4.90
2018-11-02T04:44:23.276Z,6.00
2018-11-02T04:45:23.389Z,5.80
2018-11-02T04:46:23.304Z,6.40
2018-11-02T04:47:23.324Z,6.00
2018-11-02T04:48:23.336Z,5.00
2018-11-02T04:49:23.357Z,5.40
2018-11-02T04:50:23.460Z,6.10
2018-11-02T04:51:23.402Z,5.30
2018-11-02T04:52:23.411Z,6.20
2018-11-02T04:53:23.431Z,5.20
2018-11-02T04:54:23.445Z,5.90
2018-11-02T04:55:23.564Z,5.50
2018-11-02T04:56:23.484Z,5.20
2018-11-02T04:57:23.496Z,5.40
2018-11-02T04:58:23.528Z,6.30
2018-11-02T04:59:23.536Z,5.40
2018-11-02T05:00:23.662Z,5.50
2018-11-02T05:01:23.578Z,5.40
2018-11-02T05:02:23.591Z,5.70
2018-11-02T05:03:23.609Z,6.10
2018-11-02T05:04:23.629Z,6.40
2018-11-02T05:05:23.897Z,5.30
2018-11-02T05:06:23.662Z,7.20
2018-11-02T05:07:23.683Z,6.20
2018-11-02T05:08:23.699Z,7.90
2018-11-02T05:09:23.718Z,6.50
2018-11-02T05:10:23.982Z,6.70
2018-11-02T05:11:23.838Z,6.50
2018-11-02T05:12:23.773Z,5.90
2018-11-02T05:13:23.820Z,6.60
2018-11-02T05:14:23.791Z,6.50
2018-11-02T05:15:24.070Z,6.50
2018-11-02T05:16:23.845Z,6.20
2018-11-02T05:17:23.863Z,6.00
2018-11-02T05:18:23.905Z,5.90
2018-11-02T05:19:23.901Z,6.00
2018-11-02T05:20:24.169Z,6.80
2018-11-02T05:21:24.006Z,6.60
2018-11-02T05:22:23.950Z,6.90
2018-11-02T05:23:23.965Z,7.30
2018-11-02T05:24:23.984Z,6.40
2018-11-02T05:25:24.260Z,8.40
2018-11-02T05:26:24.022Z,7.20
2018-11-02T05:27:24.038Z,7.20
2018-11-02T05:28:24.045Z,7.10
2018-11-02T05:29:24.084Z,7.80
2018-11-02T05:30:24.350Z,7.70
2018-11-02T05:31:24.119Z,8.10
2018-11-02T05:32:24.134Z,8.50
2018-11-02T05:33:24.155Z,7.00
2018-11-02T05:34:24.169Z,6.10
2018-11-02T05:35:24.281Z,6.60
2018-11-02T05:36:24.185Z,6.60
2018-11-02T05:37:24.223Z,6.60
2018-11-02T05:38:24.239Z,6.20
2018-11-02T05:39:24.279Z,8.20
2018-11-02T05:40:24.372Z,6.60
2018-11-02T05:41:24.307Z,6.30
2018-11-02T05:42:24.310Z,8.80
2018-11-02T05:43:24.327Z,8.10
2018-11-02T05:44:24.345Z,6.50
2018-11-02T05:45:24.465Z,7.50
2018-11-02T05:46:24.381Z,7.00
2018-11-02T05:47:24.603Z,8.40
2018-11-02T05:48:24.416Z,7.60
2018-11-02T05:49:24.436Z,7.60
2018-11-02T05:50:24.552Z,6.70
2018-11-02T05:51:24.473Z,6.70
2018-11-02T05:52:24.488Z,7.90
2018-11-02T05:53:24.510Z,7.00
2018-11-02T05:54:24.612Z,6.60
2018-11-02T05:55:24.641Z,7.00
2018-11-02T05:56:24.543Z,6.40
2018-11-02T05:57:24.562Z,6.50
2018-11-02T05:58:24.600Z,6.60
2018-11-02T05:59:24.610Z,6.40
2018-11-02T06:00:24.716Z,7.60
2018-11-02T06:01:24.665Z,6.40
2018-11-02T06:02:24.663Z,6.60
2018-11-02T06:03:24.681Z,6.50
2018-11-02T06:04:24.709Z,7.10
2018-11-02T06:05:24.967Z,6.40
2018-11-02T06:06:24.739Z,7.10
2018-11-02T06:07:24.755Z,6.40
2018-11-02T06:08:24.779Z,6.20
2018-11-02T06:09:24.792Z,6.00
2018-11-02T06:10:24.919Z,6.20
2018-11-02T06:11:24.833Z,6.60
2018-11-02T06:12:24.846Z,6.00
2018-11-02T06:13:24.872Z,6.60
2018-11-02T06:14:24.880Z,6.20
2018-11-02T06:15:25.002Z,6.50
2018-11-02T06:16:24.914Z,7.20
2018-11-02T06:17:24.938Z,5.40
2018-11-02T06:18:24.953Z,5.80
2018-11-02T06:19:24.972Z,5.90
2018-11-02T06:20:25.090Z,5.60
2018-11-02T06:21:24.991Z,5.50
2018-11-02T06:22:25.026Z,6.00
2018-11-02T06:23:25.045Z,5.80
2018-11-02T06:24:25.210Z,5.90
2018-11-02T06:25:25.183Z,5.80
2018-11-02T06:26:25.097Z,5.30
2018-11-02T06:27:25.114Z,5.70
2018-11-02T06:28:25.132Z,5.80
2018-11-02T06:29:25.150Z,6.00
2018-11-02T06:30:25.321Z,6.40
2018-11-02T06:31:25.166Z,5.90
2018-11-02T06:32:25.251Z,5.80
2018-11-02T06:33:25.208Z,5.70
2018-11-02T06:34:25.235Z,5.40
2018-11-02T06:35:25.340Z,6.10
2018-11-02T06:36:25.260Z,6.00
2018-11-02T06:37:25.289Z,5.90
2018-11-02T06:38:25.316Z,5.40
2018-11-02T06:39:25.332Z,6.10
2018-11-02T06:40:25.597Z,6.90
2018-11-02T06:41:25.369Z,5.60
2018-11-02T06:42:25.384Z,5.70
2018-11-02T06:43:25.389Z,5.40
2018-11-02T06:44:25.420Z,6.50
2018-11-02T06:45:25.438Z,5.30
2018-11-02T06:46:25.558Z,5.70
2018-11-02T06:47:25.474Z,5.30
2018-11-02T06:48:25.475Z,5.60
2018-11-02T06:49:25.491Z,5.10
2018-11-02T06:50:25.529Z,5.30
2018-11-02T06:51:25.645Z,5.50
2018-11-02T06:52:25.560Z,5.00
2018-11-02T06:53:25.573Z,6.20
2018-11-02T06:54:25.593Z,4.60
2018-11-02T06:55:25.612Z,5.40
2018-11-02T06:56:25.732Z,5.00
2018-11-02T06:57:25.646Z,5.40
2018-11-02T06:58:25.673Z,5.10
2018-11-02T06:59:25.764Z,5.10
2018-11-02T07:00:25.837Z,5.20
2018-11-02T07:01:25.961Z,5.00
2018-11-02T07:02:25.742Z,4.70
2018-11-02T07:03:25.763Z,6.00
2018-11-02T07:04:25.775Z,5.00
2018-11-02T07:05:25.789Z,5.50
2018-11-02T07:06:25.916Z,5.10
2018-11-02T07:07:25.903Z,5.00
2018-11-02T07:08:25.924Z,5.00
2018-11-02T07:09:25.865Z,5.90
2018-11-02T07:10:25.880Z,5.10
2018-11-02T07:11:26.176Z,4.90
2018-11-02T07:12:25.920Z,4.80
2018-11-02T07:13:25.930Z,5.10
2018-11-02T07:14:25.953Z,5.00
2018-11-02T07:15:25.954Z,5.20
2018-11-02T07:16:26.076Z,4.80
2018-11-02T07:17:26.008Z,4.90
2018-11-02T07:18:26.028Z,4.70
2018-11-02T07:19:26.025Z,4.50
2018-11-02T07:20:26.061Z,4.30
2018-11-02T07:21:26.333Z,4.50
2018-11-02T07:22:26.097Z,4.60
2018-11-02T07:23:26.109Z,4.80
2018-11-02T07:24:26.150Z,4.60
2018-11-02T07:25:26.149Z,4.50
2018-11-02T07:26:26.262Z,4.70
2018-11-02T07:27:26.180Z,4.70
2018-11-02T07:28:26.188Z,6.10
2018-11-02T07:29:26.218Z,4.90
2018-11-02T07:30:26.222Z,4.10
2018-11-02T07:31:26.360Z,5.70
2018-11-02T07:32:26.341Z,4.50
2018-11-02T07:33:26.297Z,4.30
2018-11-02T07:34:26.455Z,4.60
2018-11-02T07:35:26.320Z,4.40
2018-11-02T07:36:26.599Z,4.00
2018-11-02T07:37:26.369Z,4.70
2018-11-02T07:38:26.405Z,4.60
2018-11-02T07:39:26.412Z,4.50
2018-11-02T07:40:26.415Z,5.10
2018-11-02T07:41:26.430Z,4.00
2018-11-02T07:42:26.698Z,4.20
2018-11-02T07:43:26.467Z,4.10
2018-11-02T07:44:26.484Z,4.90
2018-11-02T07:45:26.493Z,4.90
2018-11-02T07:46:26.540Z,4.30
2018-11-02T07:47:26.701Z,4.20
2018-11-02T07:48:26.557Z,4.70
2018-11-02T07:49:26.670Z,4.40
2018-11-02T07:50:26.666Z,4.30
2018-11-02T07:51:26.612Z,5.80
2018-11-02T07:52:26.725Z,4.10
2018-11-02T07:53:26.649Z,4.60
2018-11-02T07:54:26.659Z,4.10
2018-11-02T07:55:26.678Z,4.10
2018-11-02T07:56:26.701Z,3.90
2018-11-02T07:57:26.856Z,4.00
2018-11-02T07:58:26.730Z,3.90
2018-11-02T07:59:26.783Z,4.60
2018-11-02T08:00:26.767Z,4.40
2018-11-02T08:01:26.790Z,5.00
2018-11-02T08:02:26.903Z,4.40
2018-11-02T08:03:26.823Z,3.90
2018-11-02T08:04:26.842Z,4.50
2018-11-02T08:05:26.865Z,4.00
2018-11-02T08:06:26.876Z,3.90
2018-11-02T08:07:27.148Z,4.10
2018-11-02T08:08:26.900Z,4.00
2018-11-02T08:09:26.927Z,3.50
2018-11-02T08:10:26.954Z,3.60
2018-11-02T08:11:27.007Z,4.00
2018-11-02T08:12:27.084Z,4.10
2018-11-02T08:13:26.991Z,3.90
2018-11-02T08:14:27.023Z,4.30
2018-11-02T08:15:27.038Z,4.10
2018-11-02T08:16:27.061Z,3.70
2018-11-02T08:17:27.229Z,3.50
2018-11-02T08:18:27.094Z,3.60
2018-11-02T08:19:27.104Z,4.30
2018-11-02T08:20:27.127Z,3.80
2018-11-02T08:21:27.140Z,4.00
2018-11-02T08:22:27.414Z,3.40
2018-11-02T08:23:27.177Z,3.50
2018-11-02T08:24:27.271Z,4.00
2018-11-02T08:25:27.203Z,3.60
2018-11-02T08:26:27.238Z,3.90
2018-11-02T08:27:27.351Z,4.10
2018-11-02T08:28:27.269Z,3.60
2018-11-02T08:29:27.293Z,3.70
2018-11-02T08:30:27.303Z,3.90
2018-11-02T08:31:27.317Z,4.20
2018-11-02T08:32:27.439Z,3.70
2018-11-02T08:33:27.359Z,3.70
2018-11-02T08:34:27.363Z,3.40
2018-11-02T08:35:27.394Z,4.00
2018-11-02T08:36:27.406Z,3.30
2018-11-02T08:37:27.528Z,3.50
2018-11-02T08:38:27.448Z,3.20
2018-11-02T08:39:27.462Z,3.90
2018-11-02T08:40:27.483Z,3.50
2018-11-02T08:41:27.483Z,3.60
2018-11-02T08:42:27.769Z,3.70
2018-11-02T08:43:27.536Z,3.90
2018-11-02T08:44:27.554Z,3.30
2018-11-02T08:45:27.569Z,4.30
2018-11-02T08:46:27.666Z,3.50
2018-11-02T08:47:27.703Z,3.30
2018-11-02T08:48:27.621Z,3.60
2018-11-02T08:49:27.642Z,4.30
2018-11-02T08:50:27.660Z,3.60
2018-11-02T08:51:27.670Z,4.00
2018-11-02T08:52:27.998Z,3.40
2018-11-02T08:53:27.707Z,4.10
2018-11-02T08:54:27.713Z,4.00
2018-11-02T08:55:27.730Z,4.30
2018-11-02T08:56:27.758Z,3.30
2018-11-02T08:57:28.038Z,3.50
2018-11-02T08:58:27.984Z,3.50
2018-11-02T08:59:27.989Z,4.00
2018-11-02T09:00:27.833Z,3.50
2018-11-02T09:01:27.835Z,3.50
2018-11-02T09:02:27.972Z,3.40
2018-11-02T09:03:27.888Z,3.30
2018-11-02T09:04:27.906Z,3.50
2018-11-02T09:05:27.927Z,3.40
2018-11-02T09:06:27.921Z,3.30
2018-11-02T09:07:28.066Z,3.30
2018-11-02T09:08:27.978Z,3.50
2018-11-02T09:09:27.991Z,3.70
2018-11-02T09:10:28.011Z,3.30
2018-11-02T09:11:28.027Z,3.90
2018-11-02T09:12:28.298Z,3.70
2018-11-02T09:13:28.065Z,3.70
2018-11-02T09:14:28.082Z,3.30
2018-11-02T09:15:28.100Z,3.40
2018-11-02T09:16:28.120Z,4.20
2018-11-02T09:17:28.241Z,4.40
2018-11-02T09:18:28.287Z,3.40
2018-11-02T09:19:28.320Z,3.30
2018-11-02T09:20:28.183Z,3.40
2018-11-02T09:21:28.492Z,3.10
2018-11-02T09:22:28.309Z,3.50
2018-11-02T09:23:28.227Z,3.60
2018-11-02T09:24:28.271Z,3.20
2018-11-02T09:25:28.263Z,3.20
2018-11-02T09:26:28.296Z,3.20
2018-11-02T09:27:28.472Z,3.30
2018-11-02T09:28:28.337Z,3.50
2018-11-02T09:29:28.356Z,3.40
2018-11-02T09:30:28.353Z,4.00
2018-11-02T09:31:28.382Z,3.20
2018-11-02T09:32:28.504Z,3.30
2018-11-02T09:33:28.416Z,4.70
2018-11-02T09:34:28.435Z,3.00
2018-11-02T09:35:28.449Z,2.80
2018-11-02T09:36:28.464Z,3.80
2018-11-02T09:37:28.732Z,3.60
2018-11-02T09:38:28.508Z,3.10
2018-11-02T09:39:28.526Z,3.10
2018-11-02T09:40:28.621Z,3.00
2018-11-02T09:41:28.559Z,3.10
2018-11-02T09:42:28.881Z,3.40
2018-11-02T09:43:28.600Z,2.90
2018-11-02T09:44:28.622Z,4.80
2018-11-02T09:45:28.632Z,3.00
2018-11-02T09:46:28.630Z,3.20
2018-11-02T09:47:28.764Z,2.90
2018-11-02T09:48:28.681Z,3.20
2018-11-02T09:49:28.704Z,3.10
2018-11-02T09:50:28.707Z,3.20
2018-11-02T09:51:28.827Z,3.30
2018-11-02T09:52:28.860Z,2.80
2018-11-02T09:53:28.773Z,3.20
2018-11-02T09:54:28.787Z,3.40
2018-11-02T09:55:28.809Z,2.90
2018-11-02T09:56:28.821Z,3.70
2018-11-02T09:57:28.984Z,2.90
2018-11-02T09:58:28.858Z,3.20
2018-11-02T09:59:28.876Z,3.10
2018-11-02T10:00:28.894Z,2.70
2018-11-02T10:01:28.911Z,2.80
2018-11-02T10:02:29.029Z,3.40
2018-11-02T10:03:28.946Z,2.80
2018-11-02T10:04:28.969Z,2.50
2018-11-02T10:05:28.970Z,2.70
2018-11-02T10:06:29.005Z,3.80
2018-11-02T10:07:29.114Z,4.80
2018-11-02T10:08:29.048Z,3.30
2018-11-02T10:09:29.053Z,4.30
2018-11-02T10:10:29.069Z,2.80
2018-11-02T10:11:29.088Z,3.20
2018-11-02T10:12:29.195Z,4.40
2018-11-02T10:13:29.125Z,5.80
2018-11-02T10:14:29.142Z,4.20
2018-11-02T10:15:29.160Z,3.60
2018-11-02T10:16:29.174Z,5.40
2018-11-02T10:17:29.442Z,5.10
2018-11-02T10:18:29.210Z,4.40
2018-11-02T10:19:29.232Z,4.60
2018-11-02T10:20:29.279Z,3.60
2018-11-02T10:21:29.264Z,4.30
2018-11-02T10:22:29.368Z,3.20
2018-11-02T10:23:29.282Z,5.20
2018-11-02T10:24:29.319Z,2.90
2018-11-02T10:25:29.333Z,3.80
2018-11-02T10:26:29.356Z,4.10
2018-11-02T10:27:29.618Z,3.40
2018-11-02T10:28:29.388Z,4.00
2018-11-02T10:29:29.406Z,4.40
2018-11-02T10:30:29.409Z,6.10
2018-11-02T10:31:29.440Z,4.00
2018-11-02T10:32:29.455Z,4.30
2018-11-02T10:33:29.753Z,5.00
2018-11-02T10:34:29.548Z,5.10
2018-11-02T10:35:29.662Z,4.10
2018-11-02T10:36:29.534Z,4.50
2018-11-02T10:37:29.551Z,4.70
2018-11-02T10:38:29.660Z,5.60
2018-11-02T10:39:29.651Z,4.50
2018-11-02T10:40:29.605Z,5.60
2018-11-02T10:41:29.598Z,3.60
2018-11-02T10:42:29.631Z,4.40
2018-11-02T10:43:29.757Z,4.20
2018-11-02T10:44:29.755Z,4.40
2018-11-02T10:45:29.730Z,4.80
2018-11-02T10:46:29.707Z,4.40
2018-11-02T10:47:29.718Z,3.80
2018-11-02T10:48:29.829Z,4.50
2018-11-02T10:49:29.831Z,4.80
2018-11-02T10:50:29.761Z,6.30
2018-11-02T10:51:29.796Z,5.80
2018-11-02T10:52:29.810Z,5.00
2018-11-02T10:53:29.913Z,4.10
2018-11-02T10:54:29.959Z,4.40
2018-11-02T10:55:29.863Z,5.30
2018-11-02T10:56:29.943Z,5.10
2018-11-02T10:57:29.913Z,4.50
2018-11-02T10:58:30.043Z,4.10
2018-11-02T10:59:29.919Z,5.00
2018-11-02T11:00:30.061Z,4.60
2018-11-02T11:01:29.987Z,4.60
2018-11-02T11:02:29.983Z,5.80
2018-11-02T11:03:30.089Z,5.10
2018-11-02T11:04:30.021Z,6.60
2018-11-02T11:05:30.126Z,4.80
2018-11-02T11:06:30.041Z,6.20
2018-11-02T11:07:30.070Z,5.40
2018-11-02T11:08:30.183Z,4.80
2018-11-02T11:09:30.102Z,5.50
2018-11-02T11:10:30.128Z,5.70
2018-11-02T11:11:30.244Z,5.10
2018-11-02T11:12:30.288Z,5.50
2018-11-02T11:13:30.606Z,4.20
2018-11-02T11:14:30.196Z,5.00
2018-11-02T11:15:30.210Z,4.60
2018-11-02T11:16:30.231Z,4.90
2018-11-02T11:17:30.235Z,7.00
2018-11-02T11:18:30.499Z,6.60
2018-11-02T11:19:30.295Z,5.40
2018-11-02T11:20:30.302Z,4.60
2018-11-02T11:21:30.418Z,5.30
2018-11-02T11:22:30.336Z,5.40
2018-11-02T11:23:30.346Z,5.00
2018-11-02T11:24:30.476Z,5.60
2018-11-02T11:25:30.391Z,4.90
2018-11-02T11:26:30.412Z,6.40
2018-11-02T11:27:30.427Z,5.30
2018-11-02T11:28:30.426Z,5.30
2018-11-02T11:29:30.703Z,5.20
2018-11-02T11:30:30.478Z,4.70
2018-11-02T11:31:30.493Z,4.60
2018-11-02T11:32:30.508Z,4.10
2018-11-02T11:33:30.534Z,6.50
2018-11-02T11:34:30.646Z,5.70
2018-11-02T11:35:30.565Z,5.00
2018-11-02T11:36:30.584Z,5.00
2018-11-02T11:37:30.599Z,5.60
2018-11-02T11:38:30.623Z,5.20
2018-11-02T11:39:30.881Z,5.10
2018-11-02T11:40:30.659Z,4.90
2018-11-02T11:41:30.667Z,4.80
2018-11-02T11:42:30.691Z,5.60
2018-11-02T11:43:30.704Z,4.70
2018-11-02T11:44:30.822Z,4.30
2018-11-02T11:45:30.740Z,4.80
2018-11-02T11:46:30.745Z,6.50
2018-11-02T11:47:30.776Z,9.80
2018-11-02T11:48:30.866Z,6.80
2018-11-02T11:49:31.061Z,7.60
2018-11-02T11:50:30.833Z,6.00
2018-11-02T11:51:30.848Z,5.20
2018-11-02T11:52:30.851Z,5.60
2018-11-02T11:53:30.884Z,3.90
2018-11-02T11:54:31.220Z,4.50
2018-11-02T11:55:30.916Z,4.70
2018-11-02T11:56:30.944Z,5.90
2018-11-02T11:57:30.956Z,6.90
2018-11-02T11:58:30.971Z,4.60
2018-11-02T11:59:31.229Z,5.00
2018-11-02T12:00:31.006Z,5.80
2018-11-02T12:01:31.025Z,4.90
2018-11-02T12:02:31.232Z,4.30
2018-11-02T12:03:31.059Z,5.70
2018-11-02T12:04:31.205Z,5.00
2018-11-02T12:05:31.097Z,5.50
2018-11-02T12:06:31.112Z,5.60
2018-11-02T12:07:31.140Z,5.10
2018-11-02T12:08:31.150Z,5.90
2018-11-02T12:09:31.264Z,6.10
2018-11-02T12:10:31.270Z,6.00
2018-11-02T12:11:31.201Z,4.60
2018-11-02T12:12:31.219Z,5.30
2018-11-02T12:13:31.233Z,5.90
2018-11-02T12:14:31.506Z,4.90
2018-11-02T12:15:31.271Z,4.60
2018-11-02T12:16:31.291Z,5.40
2018-11-02T12:17:31.306Z,4.20
2018-11-02T12:18:31.312Z,6.90
2018-11-02T12:19:31.411Z,5.90
2018-11-02T12:20:31.621Z,6.40
2018-11-02T12:23:41.936Z,5.50
2018-11-02T12:24:16.269Z,5.60
2018-11-02T12:25:16.286Z,5.50
2018-11-02T12:26:16.591Z,6.30
2018-11-02T12:27:16.316Z,5.20
2018-11-02T12:28:16.419Z,6.20
2018-11-02T12:29:16.381Z,4.60
2018-11-02T12:30:16.398Z,6.00
2018-11-02T12:31:16.408Z,5.50
2018-11-02T12:32:16.534Z,5.30
2018-11-02T12:33:49.660Z,6.50
2018-11-02T12:34:16.415Z,6.50
2018-11-02T12:35:16.497Z,5.70
2018-11-02T12:36:16.491Z,6.10
2018-11-02T12:37:16.702Z,6.10
2018-11-02T12:38:16.586Z,5.80
2018-11-02T12:39:16.559Z,5.40
2018-11-02T12:40:16.579Z,5.50
2018-11-02T12:41:16.596Z,5.50
2018-11-02T12:42:16.713Z,5.30
2018-11-02T12:43:16.705Z,6.00
2018-11-02T12:44:16.649Z,4.70
2018-11-02T12:45:16.661Z,6.60
2018-11-02T12:46:16.673Z,6.60
2018-11-02T12:47:16.799Z,6.70
2018-11-02T12:48:16.807Z,5.20
2018-11-02T12:49:17.148Z,6.50
2018-11-02T12:50:16.892Z,5.60
2018-11-02T12:51:16.759Z,5.20
2018-11-02T12:52:16.892Z,6.00
2018-11-02T12:53:16.795Z,5.70
2018-11-02T12:54:29.561Z,6.30
2018-11-02T12:55:16.837Z,5.30
2018-11-02T12:56:16.858Z,7.50
2018-11-02T12:57:16.995Z,7.40
2018-11-02T12:58:16.902Z,6.00
2018-11-02T12:59:16.924Z,6.30
2018-11-02T13:00:16.914Z,6.80
2018-11-02T13:01:16.936Z,5.80
2018-11-02T13:02:17.225Z,5.20
2018-11-02T13:03:16.982Z,4.90
2018-11-02T13:04:16.999Z,6.30
2018-11-02T13:05:17.023Z,5.80
2018-11-02T13:06:17.038Z,5.70
2018-11-02T13:07:17.158Z,6.20
2018-11-02T13:08:17.075Z,5.10
2018-11-02T13:09:17.104Z,6.80
2018-11-02T13:10:17.113Z,5.50
2018-11-02T13:11:17.119Z,6.30
2018-11-02T13:12:17.248Z,6.80
2018-11-02T13:13:17.160Z,6.00
2018-11-02T13:14:17.177Z,6.30
2018-11-02T13:15:17.197Z,5.80
2018-11-02T13:16:17.224Z,5.10
2018-11-02T13:17:17.334Z,6.30
2018-11-02T13:18:17.356Z,6.30
2018-11-02T13:19:17.256Z,5.30
2018-11-02T13:20:17.348Z,7.00